Time;durP1;ratioP1;P1;durP2;ratioP2;P2;SDS_P1;SDS_P2;PMS_P1;PMS_P2;Temp;Humidity;BMP_temperature;BMP_pressure;BME280_temperature;BME280_humidity;BME280_pressure;Samples;Min_cycle;Max_cycle;Signal;HPM_P1;HPM_P2
2023/05/26 00:04:50;;;;;;;11.67;6.67;;;13.40;99.90;;;;;;10578835;27;20277;-70
2023/05/26 00:09:51;;;;;;;11.87;6.37;;;13.30;99.90;;;;;;10587879;27;20230;-70
2023/05/26 00:14:52;;;;;;;12.70;6.83;;;13.30;99.90;;;;;;10600305;27;20314;-69
2023/05/26 00:19:52;;;;;;;10.93;6.57;;;13.20;99.90;;;;;;10607155;27;20589;-69
2023/05/26 00:24:53;;;;;;;13.20;7.53;;;13.20;99.90;;;;;;10602097;27;20221;-69
2023/05/26 00:29:54;;;;;;;10.23;6.63;;;13.10;99.90;;;;;;10606934;27;20217;-69
2023/05/26 00:34:54;;;;;;;13.03;6.80;;;13.10;99.90;;;;;;10600900;27;20221;-69
2023/05/26 00:39:55;;;;;;;12.70;7.00;;;13.00;99.90;;;;;;10582055;27;20646;-71
2023/05/26 00:44:55;;;;;;;10.97;6.40;;;12.90;99.90;;;;;;10600013;27;20228;-71
2023/05/26 00:49:56;;;;;;;11.17;7.07;;;12.90;99.90;;;;;;10597831;27;20228;-70
2023/05/26 00:54:57;;;;;;;12.93;6.93;;;12.80;99.90;;;;;;10589777;27;20308;-71
2023/05/26 00:59:58;;;;;;;11.07;7.43;;;12.80;99.90;;;;;;10609524;27;20217;-71
2023/05/26 01:04:59;;;;;;;11.10;6.87;;;12.70;99.90;;;;;;10613198;27;21091;-70
2023/05/26 01:10:00;;;;;;;10.93;6.93;;;12.60;99.90;;;;;;10601275;27;20758;-70
2023/05/26 01:15:11;;;;;;;13.13;7.20;;;12.50;99.90;;;;;;10598606;27;20232;-70
2023/05/26 01:20:28;;;;;;;9.30;6.50;;;12.50;99.90;;;;;;10596896;27;20222;-69
2023/05/26 01:25:35;;;;;;;13.00;7.33;;;12.40;99.90;;;;;;10591730;27;20218;-71
2023/05/26 01:30:37;;;;;;;12.73;6.97;;;12.40;99.90;;;;;;10607109;27;20224;-69
2023/05/26 01:35:37;;;;;;;10.17;6.80;;;12.40;99.90;;;;;;10572573;27;20308;-68
2023/05/26 01:40:40;;;;;;;11.73;6.77;;;12.30;99.90;;;;;;10579786;27;20309;-68
2023/05/26 01:45:52;;;;;;;7.93;6.53;;;12.30;99.90;;;;;;10601234;27;20900;-69
2023/05/26 01:50:57;;;;;;;11.70;7.07;;;12.30;99.90;;;;;;10603301;27;20217;-70
2023/05/26 01:55:59;;;;;;;14.23;6.57;;;12.20;99.90;;;;;;10602783;27;20242;-69
2023/05/26 02:01:00;;;;;;;14.93;7.07;;;12.20;99.90;;;;;;10596706;27;20221;-68
2023/05/26 02:06:01;;;;;;;12.90;7.17;;;12.10;99.90;;;;;;10601746;27;20693;-69
2023/05/26 02:11:01;;;;;;;13.57;7.37;;;12.10;99.90;;;;;;10594470;27;20226;-69
2023/05/26 02:16:03;;;;;;;9.30;6.87;;;12.00;99.90;;;;;;10577141;27;20213;-68
2023/05/26 02:21:03;;;;;;;13.10;7.00;;;12.00;99.90;;;;;;10606896;27;20221;-69
2023/05/26 02:26:04;;;;;;;12.37;6.90;;;12.00;99.90;;;;;;10595540;27;20224;-67
2023/05/26 02:31:05;;;;;;;9.93;7.10;;;11.90;99.90;;;;;;10599376;27;20271;-71
2023/05/26 02:36:07;;;;;;;10.73;6.80;;;11.90;99.90;;;;;;10589041;27;20209;-70
2023/05/26 02:41:08;;;;;;;12.07;6.83;;;11.90;99.90;;;;;;10606969;27;20217;-68
2023/05/26 02:46:09;;;;;;;11.07;7.13;;;11.80;99.90;;;;;;10574056;27;20213;-68
2023/05/26 02:51:10;;;;;;;11.87;7.10;;;11.80;99.90;;;;;;10596576;27;20235;-68
2023/05/26 02:56:10;;;;;;;13.73;7.40;;;11.80;99.90;;;;;;10580794;27;20262;-67
2023/05/26 03:01:11;;;;;;;13.50;7.57;;;11.70;99.90;;;;;;10601043;27;20259;-70
2023/05/26 03:06:12;;;;;;;12.77;7.57;;;11.70;99.90;;;;;;10581403;27;20285;-69
2023/05/26 03:11:12;;;;;;;11.53;6.90;;;11.60;99.90;;;;;;10605038;27;20221;-69
2023/05/26 03:16:14;;;;;;;14.77;7.47;;;11.60;99.90;;;;;;10597401;27;20948;-69
2023/05/26 03:21:15;;;;;;;13.00;7.20;;;11.50;99.90;;;;;;10594580;27;20609;-67
2023/05/26 03:26:17;;;;;;;13.97;7.53;;;11.50;99.90;;;;;;10599431;27;20271;-68
2023/05/26 03:31:17;;;;;;;13.90;8.30;;;11.50;99.90;;;;;;10604629;28;20228;-68
2023/05/26 03:36:18;;;;;;;14.33;7.63;;;11.40;99.90;;;;;;10579585;28;20788;-71
2023/05/26 03:41:18;;;;;;;11.73;8.00;;;11.40;99.90;;;;;;10597810;27;20255;-68
2023/05/26 03:46:19;;;;;;;11.53;7.47;;;11.50;99.90;;;;;;10579000;27;20748;-69
2023/05/26 03:51:20;;;;;;;11.53;6.87;;;11.50;99.90;;;;;;10608591;27;20290;-68
2023/05/26 03:56:20;;;;;;;9.20;6.70;;;11.60;99.90;;;;;;10599747;27;20750;-68
2023/05/26 04:01:22;;;;;;;13.50;7.37;;;11.70;99.90;;;;;;10586342;27;20232;-69
2023/05/26 04:06:27;;;;;;;12.43;7.20;;;11.80;99.90;;;;;;10582326;27;20281;-68
2023/05/26 04:11:28;;;;;;;12.23;7.00;;;11.90;99.90;;;;;;10601957;27;20217;-68
2023/05/26 04:16:28;;;;;;;10.83;6.87;;;11.90;99.90;;;;;;10582552;27;20213;-68
2023/05/26 04:21:30;;;;;;;8.70;6.53;;;11.90;99.90;;;;;;10608856;27;20233;-70
2023/05/26 04:26:33;;;;;;;11.30;7.60;;;12.00;99.90;;;;;;10603983;27;20217;-70
2023/05/26 04:31:40;;;;;;;13.73;7.70;;;12.10;99.90;;;;;;10586539;27;20225;-70
2023/05/26 04:36:41;;;;;;;11.60;7.40;;;12.20;99.90;;;;;;10590675;27;20680;-69
2023/05/26 04:41:43;;;;;;;9.73;6.63;;;12.30;99.90;;;;;;10602196;27;20250;-71
2023/05/26 04:46:44;;;;;;;10.50;6.60;;;13.30;99.90;;;;;;10613572;27;20217;-71
2023/05/26 04:51:44;;;;;;;13.93;6.77;;;13.20;99.90;;;;;;10582033;27;20775;-69
2023/05/26 04:56:45;;;;;;;10.17;6.97;;;13.10;99.90;;;;;;10588598;27;20296;-69
2023/05/26 05:01:47;;;;;;;10.13;6.07;;;14.30;99.90;;;;;;10605118;27;20700;-70
2023/05/26 05:06:48;;;;;;;11.67;6.10;;;15.50;99.90;;;;;;10590091;27;20696;-76
2023/05/26 05:11:49;;;;;;;11.43;6.20;;;16.10;99.90;;;;;;10585332;27;20247;-72
2023/05/26 05:16:50;;;;;;;8.73;5.87;;;15.50;99.90;;;;;;10580553;27;20308;-74
2023/05/26 05:21:50;;;;;;;12.23;6.30;;;14.70;99.90;;;;;;10604749;27;20216;-71
2023/05/26 05:26:51;;;;;;;9.67;6.23;;;14.40;99.90;;;;;;10602133;27;20217;-70
2023/05/26 05:31:52;;;;;;;12.37;5.60;;;15.10;99.90;;;;;;10587881;27;20259;-71
2023/05/26 05:36:52;;;;;;;11.47;5.60;;;17.60;99.90;;;;;;10592397;27;20224;-67
2023/05/26 05:41:53;;;;;;;12.43;5.03;;;19.00;99.90;;;;;;10608546;27;20698;-69
2023/05/26 05:46:53;;;;;;;9.00;5.23;;;19.50;99.90;;;;;;10576980;27;20705;-70
2023/05/26 05:51:54;;;;;;;9.93;5.17;;;20.10;99.90;;;;;;10607818;27;20298;-65
2023/05/26 05:56:54;;;;;;;9.60;5.50;;;21.00;99.40;;;;;;10581342;27;20589;-64
2023/05/26 06:01:55;;;;;;;12.83;5.23;;;21.40;96.40;;;;;;10605995;27;20219;-66
2023/05/26 06:06:56;;;;;;;12.23;5.20;;;21.70;94.20;;;;;;10579658;27;20779;-67
2023/05/26 06:11:57;;;;;;;12.37;5.13;;;22.00;93.70;;;;;;10599506;27;20220;-70
2023/05/26 06:16:58;;;;;;;9.23;5.87;;;21.50;92.90;;;;;;10597619;27;20270;-71
2023/05/26 06:22:00;;;;;;;9.33;5.37;;;21.20;92.10;;;;;;10596847;27;20214;-71
2023/05/26 06:27:01;;;;;;;12.60;6.13;;;21.80;91.30;;;;;;10593918;27;20220;-73
2023/05/26 06:32:05;;;;;;;10.83;5.30;;;22.80;89.00;;;;;;10575700;27;20217;-72
2023/05/26 06:37:05;;;;;;;10.07;5.17;;;22.90;85.90;;;;;;10581756;27;20688;-69
2023/05/26 06:42:06;;;;;;;8.23;4.60;;;22.90;85.60;;;;;;10602520;27;20208;-71
2023/05/26 06:47:09;;;;;;;11.70;5.17;;;22.90;84.10;;;;;;10602715;27;20695;-71
2023/05/26 06:52:10;;;;;;;9.47;4.90;;;22.90;82.10;;;;;;10604979;27;20227;-70
2023/05/26 06:57:11;;;;;;;11.00;4.70;;;23.00;82.40;;;;;;10585839;27;20293;-72
2023/05/26 07:02:12;;;;;;;9.50;4.87;;;23.90;79.20;;;;;;10588001;27;20613;-71
2023/05/26 07:07:13;;;;;;;11.37;5.07;;;24.30;76.00;;;;;;10580878;27;20343;-71
2023/05/26 07:12:13;;;;;;;13.27;4.93;;;24.40;74.20;;;;;;10577220;27;20216;-71
2023/05/26 07:17:14;;;;;;;11.13;5.20;;;24.30;74.00;;;;;;10602090;27;20241;-70
2023/05/26 07:22:15;;;;;;;8.53;4.50;;;24.70;72.30;;;;;;10608179;27;20225;-70
2023/05/26 07:27:16;;;;;;;10.17;4.57;;;25.20;70.90;;;;;;10604593;27;20233;-70
2023/05/26 07:32:17;;;;;;;11.03;5.30;;;26.50;67.90;;;;;;10606612;28;20300;-70
2023/05/26 07:37:17;;;;;;;10.67;5.10;;;27.60;62.40;;;;;;10608073;28;20788;-71
2023/05/26 07:42:18;;;;;;;11.30;5.27;;;27.50;61.80;;;;;;10591893;28;20225;-71
2023/05/26 07:47:19;;;;;;;10.30;5.23;;;27.00;60.60;;;;;;10599177;28;20220;-70
2023/05/26 07:52:19;;;;;;;11.97;5.47;;;26.80;60.10;;;;;;10598858;28;20307;-71
2023/05/26 07:57:20;;;;;;;10.20;4.83;;;26.90;60.10;;;;;;10606510;28;20270;-70
2023/05/26 08:02:20;;;;;;;12.57;5.13;;;27.20;59.00;;;;;;10597676;28;20229;-72
2023/05/26 08:07:21;;;;;;;11.63;5.33;;;27.60;58.60;;;;;;10593689;28;20221;-70
2023/05/26 08:12:22;;;;;;;12.13;5.50;;;28.20;56.70;;;;;;10587154;28;20688;-70
2023/05/26 08:17:22;;;;;;;9.47;5.63;;;28.50;54.80;;;;;;10585573;28;20237;-67
2023/05/26 08:22:23;;;;;;;12.33;5.40;;;27.70;56.30;;;;;;10589429;28;20217;-69
2023/05/26 08:27:24;;;;;;;13.50;5.60;;;27.80;55.70;;;;;;10598848;27;20228;-70
2023/05/26 08:32:25;;;;;;;10.13;5.27;;;28.10;55.30;;;;;;10566880;27;20225;-70
2023/05/26 08:37:25;;;;;;;12.03;6.10;;;29.00;55.50;;;;;;10583232;27;20233;-70
2023/05/26 08:42:30;;;;;;;12.40;5.73;;;29.50;52.70;;;;;;10597282;27;20312;-70
2023/05/26 08:47:35;;;;;;;11.50;4.83;;;29.60;51.30;;;;;;10603160;27;20229;-71
2023/05/26 08:52:37;;;;;;;10.53;4.50;;;29.30;52.10;;;;;;10577612;27;20225;-70
2023/05/26 08:57:41;;;;;;;13.80;5.30;;;30.10;51.10;;;;;;10606081;27;20218;-68
2023/05/26 09:02:42;;;;;;;9.40;5.63;;;29.50;49.90;;;;;;10596331;27;20691;-70
2023/05/26 09:07:43;;;;;;;13.30;5.97;;;28.80;51.10;;;;;;10580884;27;20619;-70
2023/05/26 09:12:43;;;;;;;10.83;5.07;;;29.00;50.40;;;;;;10595692;27;20217;-69
2023/05/26 09:17:44;;;;;;;29.23;5.43;;;29.70;50.10;;;;;;10582980;27;20309;-70
2023/05/26 09:22:45;;;;;;;10.27;4.40;;;31.00;50.10;;;;;;10593175;27;20311;-69
2023/05/26 09:27:47;;;;;;;10.53;4.77;;;33.00;46.10;;;;;;10598569;27;20438;-70
2023/05/26 09:32:48;;;;;;;8.07;3.90;;;34.70;41.10;;;;;;10592030;27;20279;-70
2023/05/26 09:37:49;;;;;;;8.80;4.10;;;33.50;43.90;;;;;;10582472;27;20217;-69
2023/05/26 09:42:53;;;;;;;10.77;5.00;;;36.20;40.70;;;;;;10581568;27;20252;-70
2023/05/26 09:47:57;;;;;;;9.40;5.20;;;34.40;39.60;;;;;;10575506;27;20229;-70
2023/05/26 09:53:00;;;;;;;11.93;5.13;;;34.60;38.30;;;;;;10601168;27;20221;-71
2023/05/26 09:58:06;;;;;;;10.77;4.60;;;33.70;41.40;;;;;;10598537;27;20692;-71
2023/05/26 10:03:07;;;;;;;8.70;4.90;;;35.40;39.00;;;;;;10561568;27;20263;-72
2023/05/26 10:08:09;;;;;;;10.93;4.83;;;37.10;36.10;;;;;;10606917;27;20269;-69
2023/05/26 10:13:10;;;;;;;9.33;4.80;;;38.50;34.10;;;;;;10576288;27;20278;-69
2023/05/26 10:18:11;;;;;;;7.03;4.50;;;39.10;32.60;;;;;;10599267;27;20636;-71
2023/05/26 10:23:23;;;;;;;10.97;5.27;;;39.60;32.10;;;;;;10565130;27;20585;-71
2023/05/26 10:28:28;;;;;;;10.20;4.70;;;36.40;33.40;;;;;;10603741;27;20303;-69
2023/05/26 10:33:42;;;;;;;9.70;4.87;;;34.60;37.30;;;;;;10595540;27;20875;-70
2023/05/26 10:38:45;;;;;;;9.13;4.63;;;35.60;35.20;;;;;;10591582;27;20307;-71
2023/05/26 10:43:46;;;;;;;8.70;4.87;;;36.40;35.00;;;;;;10575553;27;20309;-70
2023/05/26 10:48:57;;;;;;;9.40;4.80;;;37.80;33.20;;;;;;10578252;27;20932;-71
2023/05/26 10:53:59;;;;;;;9.37;4.63;;;35.10;36.00;;;;;;10573993;27;20224;-70
2023/05/26 10:59:00;;;;;;;10.17;4.53;;;36.20;35.60;;;;;;10599754;27;20217;-71
2023/05/26 11:04:08;;;;;;;12.20;4.97;;;35.70;35.60;;;;;;10572836;27;20240;-69
2023/05/26 11:09:09;;;;;;;10.83;5.00;;;36.40;34.90;;;;;;10590979;27;20669;-71
2023/05/26 11:14:12;;;;;;;11.23;5.00;;;37.20;34.30;;;;;;10591261;27;20240;-69
2023/05/26 11:19:13;;;;;;;11.80;4.70;;;34.50;35.70;;;;;;10596537;27;20208;-70
2023/05/26 11:24:15;;;;;;;9.53;4.20;;;34.20;36.80;;;;;;10604627;27;20217;-70
2023/05/26 11:29:16;;;;;;;8.93;4.57;;;34.10;36.80;;;;;;10592036;27;20373;-71
2023/05/26 11:34:18;;;;;;;9.67;4.63;;;33.70;38.90;;;;;;10597140;28;20256;-69
2023/05/26 11:39:19;;;;;;;11.57;4.87;;;33.90;38.70;;;;;;10572108;28;20366;-70
2023/05/26 11:44:19;;;;;;;19.90;5.87;;;30.70;43.00;;;;;;10591852;28;20214;-70
2023/05/26 11:49:20;;;;;;;11.90;4.90;;;28.60;46.00;;;;;;10595374;28;20217;-71
2023/05/26 11:54:20;;;;;;;11.50;4.70;;;27.10;49.40;;;;;;10592581;28;20225;-70
2023/05/26 11:59:21;;;;;;;13.33;5.20;;;26.40;51.00;;;;;;10597950;27;20218;-68
2023/05/26 12:04:30;;;;;;;11.57;5.33;;;26.20;51.80;;;;;;10587283;27;20220;-68
2023/05/26 12:09:30;;;;;;;10.33;4.50;;;25.60;52.80;;;;;;10600351;27;20221;-70
2023/05/26 12:14:37;;;;;;;10.30;4.50;;;24.90;53.20;;;;;;10607716;27;20224;-70
2023/05/26 12:19:39;;;;;;;14.17;5.20;;;25.00;53.80;;;;;;10585177;27;20633;-69
2023/05/26 12:24:40;;;;;;;12.10;4.80;;;25.10;53.50;;;;;;10600255;27;20237;-70
2023/05/26 12:29:42;;;;;;;11.20;4.53;;;25.10;53.40;;;;;;10583696;27;20641;-69
2023/05/26 12:34:43;;;;;;;17.93;5.83;;;24.90;53.50;;;;;;10580605;27;20218;-69
2023/05/26 12:39:43;;;;;;;12.30;4.37;;;24.40;55.10;;;;;;10614116;27;20564;-68
2023/05/26 12:44:44;;;;;;;8.90;4.10;;;24.70;54.40;;;;;;10608873;27;20300;-70
2023/05/26 12:49:45;;;;;;;11.87;4.50;;;24.90;53.40;;;;;;10605027;27;20215;-69
2023/05/26 12:54:45;;;;;;;8.03;4.10;;;24.90;52.40;;;;;;10603941;27;20673;-69
2023/05/26 12:59:46;;;;;;;9.03;3.80;;;24.70;52.40;;;;;;10606144;27;20245;-69
2023/05/26 13:04:49;;;;;;;9.77;3.87;;;24.50;50.90;;;;;;10601972;27;20221;-70
2023/05/26 13:09:50;;;;;;;7.73;3.60;;;24.30;51.30;;;;;;10595698;27;20222;-69
2023/05/26 13:14:50;;;;;;;8.67;4.03;;;24.20;50.80;;;;;;10594393;27;20770;-69
2023/05/26 13:19:51;;;;;;;11.03;4.13;;;24.40;51.20;;;;;;10595607;27;20216;-69
2023/05/26 13:24:52;;;;;;;9.43;3.77;;;24.60;51.80;;;;;;10598293;27;20222;-71
2023/05/26 13:29:53;;;;;;;7.97;3.67;;;24.50;51.00;;;;;;10601377;27;20221;-72
2023/05/26 13:34:53;;;;;;;8.70;4.30;;;24.00;50.00;;;;;;10581394;27;20225;-71
2023/05/26 13:39:54;;;;;;;9.50;3.93;;;23.50;51.10;;;;;;10594489;27;20220;-71
2023/05/26 13:44:54;;;;;;;9.90;4.50;;;23.50;52.10;;;;;;10596197;27;20227;-73
2023/05/26 13:49:55;;;;;;;9.90;4.00;;;23.80;53.10;;;;;;10595134;27;20242;-71
2023/05/26 13:54:57;;;;;;;15.77;5.27;;;23.90;52.70;;;;;;10581926;27;20225;-71
2023/05/26 13:59:59;;;;;;;13.17;4.57;;;24.00;55.50;;;;;;10593960;27;20213;-70
2023/05/26 14:05:01;;;;;;;16.80;4.50;;;23.90;55.50;;;;;;10590234;27;20740;-71
2023/05/26 14:10:02;;;;;;;8.63;3.93;;;24.00;55.50;;;;;;10592305;27;20253;-70
2023/05/26 14:15:05;;;;;;;17.23;5.30;;;24.00;55.60;;;;;;10597568;27;20266;-69
2023/05/26 14:20:06;;;;;;;12.00;4.60;;;24.10;55.50;;;;;;10595695;27;20225;-71
2023/05/26 14:25:07;;;;;;;11.60;4.70;;;23.90;56.20;;;;;;10593211;27;20648;-70
2023/05/26 14:30:11;;;;;;;10.53;4.07;;;23.70;55.60;;;;;;10600771;27;20672;-71
2023/05/26 14:35:12;;;;;;;11.73;4.87;;;23.60;57.30;;;;;;10597316;27;20213;-70
2023/05/26 14:40:13;;;;;;;10.90;4.43;;;23.80;57.30;;;;;;10575964;27;20548;-71
2023/05/26 14:45:13;;;;;;;14.10;5.80;;;23.70;57.10;;;;;;10599215;27;20192;-70
2023/05/26 14:50:14;;;;;;;11.93;4.40;;;23.70;57.80;;;;;;10575698;27;20653;-70
2023/05/26 14:55:17;;;;;;;16.07;4.77;;;23.60;58.00;;;;;;10599310;27;20242;-70
2023/05/26 15:00:17;;;;;;;14.00;5.00;;;23.70;57.50;;;;;;10604783;27;20189;-70
2023/05/26 15:05:18;;;;;;;12.37;4.83;;;23.60;57.60;;;;;;10598280;27;20190;-71
2023/05/26 15:10:18;;;;;;;16.23;5.27;;;23.50;58.60;;;;;;10602141;27;20192;-71
2023/05/26 15:15:19;;;;;;;12.40;4.97;;;23.30;58.90;;;;;;10579839;27;20263;-72
2023/05/26 15:20:25;;;;;;;13.60;5.07;;;23.30;59.00;;;;;;10578836;27;20218;-71
2023/05/26 15:25:26;;;;;;;13.03;4.60;;;23.30;58.60;;;;;;10589991;27;20213;-70
2023/05/26 15:30:27;;;;;;;14.87;5.03;;;23.30;59.30;;;;;;10598993;28;20211;-69
2023/05/26 15:35:27;;;;;;;14.53;5.00;;;23.40;59.50;;;;;;10593335;28;20229;-71
2023/05/26 15:40:28;;;;;;;15.50;5.03;;;23.20;59.30;;;;;;10576166;28;20219;-70
2023/05/26 15:45:29;;;;;;;11.83;4.97;;;23.10;59.40;;;;;;10589118;28;20222;-70
2023/05/26 15:50:31;;;;;;;16.80;5.33;;;22.90;60.00;;;;;;10576170;28;20245;-71
2023/05/26 15:55:32;;;;;;;16.17;4.90;;;22.90;60.20;;;;;;10588522;28;20231;-71
2023/05/26 16:00:32;;;;;;;15.23;4.90;;;22.80;60.20;;;;;;10594658;28;20210;-71
2023/05/26 16:05:33;;;;;;;15.10;4.77;;;22.70;60.70;;;;;;10576243;28;20222;-71
2023/05/26 16:10:33;;;;;;;14.17;4.67;;;22.60;61.10;;;;;;10602389;28;20289;-70
2023/05/26 16:15:34;;;;;;;12.67;4.40;;;22.50;61.10;;;;;;10594549;28;20225;-71
2023/05/26 16:20:35;;;;;;;14.53;4.77;;;22.50;61.50;;;;;;10574483;28;20218;-71
2023/05/26 16:25:35;;;;;;;18.87;4.80;;;22.40;61.80;;;;;;10575835;28;20274;-71
2023/05/26 16:30:36;;;;;;;19.37;5.63;;;22.40;62.00;;;;;;10594775;28;20224;-72
2023/05/26 16:35:39;;;;;;;14.10;4.53;;;22.30;61.70;;;;;;10593338;28;20230;-70
2023/05/26 16:40:39;;;;;;;15.93;4.93;;;22.20;62.30;;;;;;10599305;28;20236;-71
2023/05/26 16:45:40;;;;;;;14.47;4.80;;;22.10;62.90;;;;;;10596924;27;20230;-71
2023/05/26 16:50:40;;;;;;;15.87;5.00;;;22.10;63.20;;;;;;10602012;27;20217;-71
2023/05/26 16:55:41;;;;;;;14.83;4.83;;;22.10;63.20;;;;;;10603728;27;20232;-70
2023/05/26 17:00:42;;;;;;;17.33;5.10;;;21.90;64.20;;;;;;10580221;27;20232;-71
2023/05/26 17:05:43;;;;;;;16.83;5.20;;;21.80;64.30;;;;;;10601865;27;20302;-72
2023/05/26 17:10:45;;;;;;;16.33;5.17;;;21.70;64.90;;;;;;10598742;27;20299;-70
2023/05/26 17:15:47;;;;;;;16.23;4.87;;;21.60;63.60;;;;;;10583412;27;20225;-71
2023/05/26 17:20:47;;;;;;;16.50;4.73;;;21.60;65.30;;;;;;10596953;27;20672;-73
2023/05/26 17:25:50;;;;;;;13.57;4.80;;;21.50;64.40;;;;;;10602989;27;20221;-72
2023/05/26 17:30:50;;;;;;;19.80;5.03;;;21.40;65.30;;;;;;10588434;27;20230;-70
2023/05/26 17:35:52;;;;;;;13.47;4.97;;;21.30;65.50;;;;;;10588483;27;20316;-71
2023/05/26 17:40:52;;;;;;;13.30;4.50;;;21.20;65.80;;;;;;10596187;27;20249;-71
2023/05/26 17:45:53;;;;;;;18.77;4.67;;;21.00;65.90;;;;;;10600932;27;20221;-71
2023/05/26 17:50:54;;;;;;;15.50;4.80;;;21.00;66.60;;;;;;10595628;27;20226;-70
2023/05/26 17:55:55;;;;;;;17.40;4.63;;;20.90;66.30;;;;;;10582747;27;20221;-71
2023/05/26 18:00:56;;;;;;;17.50;5.07;;;20.90;66.50;;;;;;10595903;27;20714;-71
2023/05/26 18:05:57;;;;;;;13.90;4.87;;;20.70;67.10;;;;;;10601858;27;20221;-75
2023/05/26 18:10:57;;;;;;;12.93;4.60;;;20.50;67.00;;;;;;10603291;27;20210;-74
2023/05/26 18:15:58;;;;;;;16.13;4.93;;;20.50;67.10;;;;;;10586383;27;20225;-73
2023/05/26 18:20:58;;;;;;;16.40;4.67;;;20.40;67.20;;;;;;10608234;27;20224;-75
2023/05/26 18:25:59;;;;;;;12.73;4.87;;;20.30;67.70;;;;;;10576234;27;20228;-74
2023/05/26 18:31:00;;;;;;;14.53;4.70;;;20.20;68.20;;;;;;10575653;27;20205;-73
2023/05/26 18:36:00;;;;;;;12.30;4.90;;;20.10;68.80;;;;;;10582732;27;20224;-74
2023/05/26 18:41:01;;;;;;;11.27;4.23;;;20.00;69.20;;;;;;10599830;27;20202;-75
2023/05/26 18:46:01;;;;;;;13.07;4.30;;;19.90;69.70;;;;;;10600119;27;20213;-75
2023/05/26 18:51:05;;;;;;;15.87;4.70;;;19.80;70.40;;;;;;10577508;27;20569;-75
2023/05/26 18:56:07;;;;;;;12.80;4.77;;;19.60;70.90;;;;;;10595591;27;20278;-75
2023/05/26 19:01:08;;;;;;;16.20;5.23;;;19.50;71.50;;;;;;10600814;27;20224;-73
2023/05/26 19:06:08;;;;;;;16.60;4.87;;;19.30;72.00;;;;;;10575954;27;20217;-76
2023/05/26 19:11:09;;;;;;;16.77;4.73;;;19.30;72.60;;;;;;10591600;27;20739;-75
2023/05/26 19:16:09;;;;;;;17.77;4.70;;;19.10;73.00;;;;;;10581244;27;20244;-75
2023/05/26 19:21:10;;;;;;;16.50;4.90;;;19.00;73.30;;;;;;10604576;27;20602;-75
2023/05/26 19:26:11;;;;;;;12.90;4.80;;;18.80;73.90;;;;;;10592003;27;20254;-73
2023/05/26 19:31:11;;;;;;;13.10;5.33;;;18.80;74.50;;;;;;10605358;27;20212;-75
2023/05/26 19:36:12;;;;;;;18.43;5.37;;;18.60;74.60;;;;;;10592401;28;20353;-75
2023/05/26 19:41:12;;;;;;;15.87;4.87;;;18.50;74.90;;;;;;10599021;28;20251;-74
2023/05/26 19:46:13;;;;;;;15.80;5.17;;;18.40;75.20;;;;;;10598004;28;20276;-74
2023/05/26 19:51:13;;;;;;;14.37;4.77;;;18.30;75.60;;;;;;10590605;28;20242;-74
2023/05/26 19:56:14;;;;;;;18.27;5.10;;;18.20;76.00;;;;;;10591961;28;20314;-74
2023/05/26 20:01:16;;;;;;;16.40;4.43;;;18.10;76.10;;;;;;10597624;28;20220;-74
2023/05/26 20:06:16;;;;;;;12.73;3.87;;;18.00;76.30;;;;;;10575975;28;20234;-74
2023/05/26 20:11:17;;;;;;;14.63;4.87;;;17.90;75.80;;;;;;10600931;28;20662;-74
2023/05/26 20:16:17;;;;;;;15.23;4.27;;;17.80;75.60;;;;;;10605041;28;20221;-75
2023/05/26 20:21:18;;;;;;;12.27;4.23;;;17.70;75.70;;;;;;10605500;27;20228;-74
2023/05/26 20:26:19;;;;;;;14.17;4.17;;;17.70;75.60;;;;;;10602230;27;20225;-74
2023/05/26 20:31:19;;;;;;;14.30;4.50;;;17.60;75.20;;;;;;10585785;27;20232;-75
2023/05/26 20:36:21;;;;;;;14.03;4.30;;;17.50;74.60;;;;;;10598965;27;20300;-76
2023/05/26 20:41:21;;;;;;;11.40;3.67;;;17.40;73.70;;;;;;10603312;27;20225;-74
2023/05/26 20:46:24;;;;;;;14.13;3.50;;;17.30;73.30;;;;;;10602221;27;20232;-74
2023/05/26 20:51:25;;;;;;;14.60;4.00;;;17.20;72.40;;;;;;10583984;27;20297;-75
2023/05/26 20:56:26;;;;;;;11.90;3.57;;;17.10;72.20;;;;;;10584228;27;20216;-74
2023/05/26 21:01:26;;;;;;;12.63;3.70;;;17.00;72.20;;;;;;10583660;27;20676;-74
2023/05/26 21:06:27;;;;;;;13.57;4.23;;;16.90;71.90;;;;;;10581840;27;20220;-74
2023/05/26 21:11:27;;;;;;;14.93;3.53;;;16.80;71.40;;;;;;10603950;27;20209;-74
2023/05/26 21:16:28;;;;;;;7.73;3.40;;;16.70;71.30;;;;;;10581761;27;20595;-73
2023/05/26 21:21:28;;;;;;;12.20;4.00;;;16.60;71.30;;;;;;10585753;27;20814;-74
2023/05/26 21:26:29;;;;;;;11.00;3.30;;;16.50;71.20;;;;;;10589183;27;20223;-73
2023/05/26 21:31:30;;;;;;;12.07;3.87;;;16.40;71.40;;;;;;10581660;27;20218;-74
2023/05/26 21:36:30;;;;;;;9.63;3.50;;;16.30;71.60;;;;;;10582577;27;20244;-73
2023/05/26 21:41:31;;;;;;;11.83;3.23;;;16.20;71.60;;;;;;10595044;27;20224;-74
2023/05/26 21:46:31;;;;;;;8.37;3.30;;;16.10;71.70;;;;;;10607794;27;20261;-74
2023/05/26 21:51:32;;;;;;;11.50;3.50;;;16.00;71.60;;;;;;10598946;27;20247;-74
2023/05/26 21:56:32;;;;;;;12.17;3.53;;;15.90;71.80;;;;;;10589306;27;20212;-74
2023/05/26 22:01:33;;;;;;;10.17;3.43;;;15.80;72.00;;;;;;10598707;27;20299;-74
2023/05/26 22:06:34;;;;;;;7.67;3.27;;;15.80;72.40;;;;;;10598583;27;20213;-73
2023/05/26 22:11:35;;;;;;;9.57;3.30;;;15.70;72.50;;;;;;10578331;27;20377;-74
2023/05/26 22:16:36;;;;;;;10.67;4.00;;;15.60;72.80;;;;;;10580349;27;20218;-74
2023/05/26 22:21:36;;;;;;;13.23;3.53;;;15.50;73.30;;;;;;10584967;27;20700;-75
2023/05/26 22:26:37;;;;;;;13.03;3.63;;;15.40;73.60;;;;;;10578751;27;20244;-75
2023/05/26 22:31:37;;;;;;;12.17;3.87;;;15.30;74.00;;;;;;10583417;27;20220;-75
2023/05/26 22:36:38;;;;;;;13.10;3.30;;;15.20;74.60;;;;;;10601557;27;20267;-73
2023/05/26 22:41:39;;;;;;;9.87;3.53;;;15.10;74.80;;;;;;10597876;27;20949;-74
2023/05/26 22:46:40;;;;;;;11.80;3.67;;;15.10;75.50;;;;;;10592730;27;20266;-74
2023/05/26 22:51:41;;;;;;;10.93;3.10;;;15.00;75.80;;;;;;10604066;27;20557;-73
2023/05/26 22:56:42;;;;;;;14.90;3.63;;;14.90;76.20;;;;;;10577245;27;20257;-73
2023/05/26 23:01:43;;;;;;;10.30;3.53;;;14.90;76.80;;;;;;10585765;27;20434;-74
2023/05/26 23:06:44;;;;;;;10.67;3.63;;;14.70;77.10;;;;;;10600565;27;20757;-73
2023/05/26 23:11:44;;;;;;;12.80;3.40;;;14.60;78.50;;;;;;10576565;27;20221;-74
2023/05/26 23:16:45;;;;;;;12.00;4.00;;;14.60;78.20;;;;;;10591125;27;20210;-75
2023/05/26 23:21:45;;;;;;;12.10;4.03;;;14.50;78.80;;;;;;10579369;27;20231;-72
2023/05/26 23:26:47;;;;;;;12.27;3.47;;;14.40;79.20;;;;;;10595197;27;20242;-74
2023/05/26 23:31:48;;;;;;;11.80;3.60;;;14.30;79.60;;;;;;10586015;27;20210;-74
2023/05/26 23:36:49;;;;;;;11.70;3.30;;;14.20;80.10;;;;;;10593353;27;20214;-73
2023/05/26 23:41:49;;;;;;;12.63;3.43;;;14.20;80.40;;;;;;10598328;28;20322;-73
2023/05/26 23:46:50;;;;;;;13.73;3.73;;;14.10;80.80;;;;;;10591616;28;20244;-74
2023/05/26 23:51:50;;;;;;;13.33;3.83;;;14.00;81.20;;;;;;10592908;28;20221;-74
2023/05/26 23:56:51;;;;;;;10.33;3.43;;;14.00;81.70;;;;;;10602465;27;20299;-73
